createdAt,value
2018-03-14T00:01:56.342Z,6.02
2018-03-14T00:04:24.656Z,5.72
2018-03-14T00:06:52.998Z,5.20
2018-03-14T00:09:21.318Z,5.34
2018-03-14T00:11:49.676Z,5.42
2018-03-14T00:14:18.086Z,5.46
2018-03-14T00:16:46.479Z,5.39
2018-03-14T00:19:14.841Z,5.38
2018-03-14T00:21:43.218Z,5.36
2018-03-14T00:24:11.601Z,5.16
2018-03-14T00:26:39.979Z,4.97
2018-03-14T00:29:08.354Z,4.95
2018-03-14T00:31:36.751Z,5.19
2018-03-14T00:34:05.211Z,5.10
2018-03-14T00:36:33.579Z,4.90
2018-03-14T00:39:02.062Z,5.14
2018-03-14T00:41:30.395Z,5.16
2018-03-14T00:43:58.742Z,5.18
2018-03-14T00:46:27.054Z,5.20
2018-03-14T00:48:55.394Z,5.09
2018-03-14T00:51:23.764Z,5.05
2018-03-14T00:53:52.110Z,4.92
2018-03-14T00:56:20.421Z,4.97
2018-03-14T00:58:48.777Z,5.05
2018-03-14T01:01:17.113Z,5.02
2018-03-14T01:03:45.456Z,4.99
2018-03-14T01:06:13.780Z,4.95
2018-03-14T01:08:42.163Z,4.86
2018-03-14T01:11:11.482Z,4.92
2018-03-14T01:13:39.887Z,4.91
2018-03-14T01:16:08.267Z,4.73
2018-03-14T01:18:36.747Z,4.89
2018-03-14T01:21:05.138Z,4.71
2018-03-14T01:23:33.510Z,4.74
2018-03-14T01:26:01.883Z,4.71
2018-03-14T01:28:30.216Z,4.60
2018-03-14T01:30:58.555Z,4.66
2018-03-14T01:33:26.929Z,4.80
2018-03-14T01:35:55.296Z,4.50
2018-03-14T01:38:23.678Z,4.60
2018-03-14T01:40:52.022Z,4.42
2018-03-14T01:43:20.446Z,4.34
2018-03-14T01:45:48.795Z,4.56
2018-03-14T01:48:17.109Z,4.54
2018-03-14T01:50:45.467Z,4.44
2018-03-14T01:53:25.827Z,4.60
2018-03-14T01:55:54.158Z,4.59
2018-03-14T01:58:22.473Z,4.58
2018-03-14T02:00:50.852Z,4.31
2018-03-14T02:03:19.236Z,4.56
2018-03-14T02:05:47.586Z,4.52
2018-03-14T02:08:15.986Z,4.52
2018-03-14T02:10:44.378Z,4.39
2018-03-14T02:13:12.697Z,4.28
2018-03-14T02:15:41.051Z,4.50
2018-03-14T02:18:09.372Z,4.47
2018-03-14T02:20:37.779Z,4.39
2018-03-14T02:23:06.108Z,4.51
2018-03-14T02:25:34.455Z,4.51
2018-03-14T02:28:02.786Z,4.58
2018-03-14T02:30:31.193Z,4.57
2018-03-14T02:32:59.556Z,4.61
2018-03-14T02:35:27.874Z,4.66
2018-03-14T02:37:56.212Z,4.76
2018-03-14T02:40:24.599Z,4.74
2018-03-14T02:42:53.082Z,4.68
2018-03-14T02:45:21.400Z,4.62
2018-03-14T02:47:49.734Z,4.61
2018-03-14T02:50:18.065Z,4.51
2018-03-14T02:52:46.459Z,4.61
2018-03-14T02:55:14.818Z,4.72
2018-03-14T02:57:43.248Z,4.56
2018-03-14T03:00:11.559Z,4.60
2018-03-14T03:02:39.919Z,4.62
2018-03-14T03:05:08.337Z,4.58
2018-03-14T03:07:36.648Z,4.58
2018-03-14T03:10:04.955Z,4.55
2018-03-14T03:12:33.306Z,4.69
2018-03-14T03:15:01.634Z,4.58
2018-03-14T03:17:30.085Z,4.69
2018-03-14T03:19:58.406Z,4.51
2018-03-14T03:22:26.841Z,4.53
2018-03-14T03:24:55.206Z,4.43
2018-03-14T03:27:23.565Z,4.56
2018-03-14T03:29:51.899Z,4.39
2018-03-14T03:32:20.210Z,4.46
2018-03-14T03:34:48.613Z,4.51
2018-03-14T03:37:16.927Z,4.49
2018-03-14T03:39:45.366Z,4.52
2018-03-14T03:42:13.697Z,4.55
2018-03-14T03:44:42.235Z,4.44
2018-03-14T03:47:10.578Z,4.58
2018-03-14T03:49:38.931Z,4.47
2018-03-14T03:52:07.235Z,4.56
2018-03-14T03:54:35.570Z,4.47
2018-03-14T03:57:03.894Z,4.43
2018-03-14T03:59:32.370Z,4.38
2018-03-14T04:02:00.695Z,4.33
2018-03-14T04:04:29.030Z,4.34
2018-03-14T04:06:57.537Z,4.43
2018-03-14T04:09:25.913Z,4.37
2018-03-14T04:11:54.307Z,4.28
2018-03-14T04:14:22.641Z,4.42
2018-03-14T04:16:50.959Z,4.43
2018-03-14T04:19:19.331Z,4.23
2018-03-14T04:21:47.711Z,4.35
2018-03-14T04:24:16.071Z,4.33
2018-03-14T04:26:44.387Z,4.42
2018-03-14T04:29:12.702Z,4.23
2018-03-14T04:31:41.051Z,4.28
2018-03-14T04:34:09.560Z,4.31
2018-03-14T04:36:37.886Z,4.49
2018-03-14T04:39:06.254Z,4.57
2018-03-14T04:41:34.618Z,4.48
2018-03-14T04:44:02.934Z,4.40
2018-03-14T04:46:31.276Z,4.40
2018-03-14T04:48:59.605Z,4.32
2018-03-14T04:51:28.040Z,4.36
2018-03-14T04:53:56.365Z,4.35
2018-03-14T04:56:24.849Z,4.55
2018-03-14T04:58:53.121Z,4.47
2018-03-14T05:01:21.552Z,4.58
2018-03-14T05:03:49.927Z,4.59
2018-03-14T05:06:18.268Z,4.61
2018-03-14T05:08:46.667Z,4.56
2018-03-14T05:11:15.119Z,4.72
2018-03-14T05:13:43.434Z,4.63
2018-03-14T05:16:11.801Z,4.68
2018-03-14T05:18:40.155Z,4.70
2018-03-14T05:21:08.490Z,4.69
2018-03-14T05:23:36.816Z,4.59
2018-03-14T05:26:05.240Z,4.65
2018-03-14T05:28:33.570Z,4.74
2018-03-14T05:31:01.908Z,4.80
2018-03-14T05:33:30.260Z,4.62
2018-03-14T05:35:58.590Z,4.60
2018-03-14T05:38:27.047Z,4.74
2018-03-14T05:40:55.367Z,4.79
2018-03-14T05:43:23.695Z,4.70
2018-03-14T05:45:52.051Z,4.75
2018-03-14T05:48:20.439Z,4.71
2018-03-14T05:50:48.753Z,4.75
2018-03-14T05:53:17.994Z,4.68
2018-03-14T05:55:46.320Z,4.77
2018-03-14T05:58:15.612Z,4.81
2018-03-14T06:00:43.931Z,4.73
2018-03-14T06:03:12.324Z,4.73
2018-03-14T06:05:40.652Z,4.80
2018-03-14T06:08:09.086Z,4.80
2018-03-14T06:10:37.407Z,4.80
2018-03-14T06:13:05.859Z,4.84
2018-03-14T06:15:34.239Z,4.69
2018-03-14T06:18:02.579Z,4.77
2018-03-14T06:20:30.903Z,4.70
2018-03-14T06:22:59.289Z,4.70
2018-03-14T06:25:27.635Z,4.54
2018-03-14T06:27:55.990Z,4.78
2018-03-14T06:30:24.532Z,4.84
2018-03-14T06:32:52.886Z,4.89
2018-03-14T06:35:21.220Z,4.85
2018-03-14T06:37:49.639Z,4.86
2018-03-14T06:40:17.991Z,4.79
2018-03-14T06:42:46.337Z,4.74
2018-03-14T06:45:14.678Z,4.66
2018-03-14T06:47:42.999Z,4.41
2018-03-14T06:50:11.426Z,4.58
2018-03-14T06:52:39.758Z,4.72
2018-03-14T06:55:08.188Z,4.63
2018-03-14T06:57:36.506Z,4.74
2018-03-14T07:00:16.599Z,4.58
2018-03-14T07:02:48.556Z,4.52
2018-03-14T07:05:28.951Z,4.64
2018-03-14T07:07:57.251Z,4.50
2018-03-14T07:10:25.617Z,4.58
2018-03-14T07:12:53.931Z,4.68
2018-03-14T07:15:22.309Z,4.72
2018-03-14T07:17:50.678Z,4.73
2018-03-14T07:20:19.019Z,4.84
2018-03-14T07:22:47.448Z,4.78
2018-03-14T07:25:15.874Z,4.82
2018-03-14T07:27:44.218Z,4.77
2018-03-14T07:30:12.841Z,4.86
2018-03-14T07:32:41.786Z,4.82
2018-03-14T07:35:10.113Z,4.79
2018-03-14T07:37:38.475Z,4.95
2018-03-14T07:40:06.793Z,4.71
2018-03-14T07:42:35.137Z,4.56
2018-03-14T07:45:03.469Z,4.75
2018-03-14T07:47:31.886Z,4.73
2018-03-14T07:50:00.215Z,4.71
2018-03-14T07:52:28.646Z,4.73
2018-03-14T07:54:56.950Z,4.78
2018-03-14T07:57:25.404Z,4.77
2018-03-14T07:59:53.718Z,4.74
2018-03-14T08:02:22.144Z,4.81
2018-03-14T08:04:50.533Z,4.98
2018-03-14T08:07:18.914Z,4.99
2018-03-14T08:09:47.391Z,4.97
2018-03-14T08:12:15.770Z,4.98
2018-03-14T08:14:44.144Z,4.91
2018-03-14T08:17:12.500Z,4.84
2018-03-14T08:19:40.818Z,5.04
2018-03-14T08:22:09.215Z,5.16
2018-03-14T08:24:37.547Z,5.24
2018-03-14T08:27:05.859Z,5.23
2018-03-14T08:29:34.207Z,4.96
2018-03-14T08:32:02.515Z,5.09
2018-03-14T08:34:30.854Z,5.10
2018-03-14T08:36:59.186Z,5.02
2018-03-14T08:39:27.618Z,5.19
2018-03-14T08:41:55.943Z,5.27
2018-03-14T08:44:24.292Z,5.17
2018-03-14T08:46:52.665Z,4.98
2018-03-14T08:49:21.067Z,5.16
2018-03-14T08:51:49.369Z,5.23
2018-03-14T08:54:17.824Z,5.25
2018-03-14T08:56:46.439Z,5.01
2018-03-14T08:59:14.774Z,5.12
2018-03-14T09:01:43.119Z,5.15
2018-03-14T09:04:11.467Z,5.08
2018-03-14T09:06:39.933Z,5.03
2018-03-14T09:09:08.370Z,5.11
2018-03-14T09:11:36.703Z,5.43
2018-03-14T09:14:05.106Z,5.60
2018-03-14T09:16:33.807Z,5.74
2018-03-14T09:19:02.192Z,5.80
2018-03-14T09:21:30.546Z,5.75
2018-03-14T09:24:00.674Z,6.10
2018-03-14T09:26:29.018Z,5.81
2018-03-14T09:28:57.378Z,5.64
2018-03-14T09:31:25.832Z,5.89
2018-03-14T09:33:54.150Z,5.99
2018-03-14T09:36:22.510Z,6.03
2018-03-14T09:38:50.872Z,6.06
2018-03-14T09:41:19.233Z,6.45
2018-03-14T09:43:47.613Z,6.07
2018-03-14T09:46:15.991Z,6.09
2018-03-14T09:48:44.367Z,6.13
2018-03-14T09:51:12.748Z,6.00
2018-03-14T09:53:41.077Z,6.06
2018-03-14T09:56:09.534Z,5.94
2018-03-14T09:58:38.023Z,5.80
2018-03-14T10:01:06.456Z,5.77
2018-03-14T10:03:34.858Z,5.89
2018-03-14T10:06:03.230Z,5.99
2018-03-14T10:08:31.558Z,6.01
2018-03-14T10:10:59.914Z,5.77
2018-03-14T10:13:28.242Z,5.83
2018-03-14T10:15:56.658Z,5.79
2018-03-14T10:18:25.018Z,5.86
2018-03-14T10:20:53.386Z,5.77
2018-03-14T10:23:21.739Z,6.01
2018-03-14T10:25:50.093Z,5.98
2018-03-14T10:28:18.423Z,5.89
2018-03-14T10:30:46.796Z,6.05
2018-03-14T10:33:15.202Z,6.05
2018-03-14T10:35:43.559Z,6.21
2018-03-14T10:38:11.935Z,6.23
2018-03-14T10:40:40.302Z,6.41
2018-03-14T10:43:08.674Z,6.42
2018-03-14T10:45:37.028Z,6.54
2018-03-14T10:48:05.402Z,6.50
2018-03-14T10:50:33.726Z,6.70
2018-03-14T10:53:06.644Z,7.11
2018-03-14T10:55:35.866Z,6.93
2018-03-14T10:58:21.040Z,6.97
2018-03-14T11:00:56.581Z,6.86
2018-03-14T11:03:30.490Z,7.54
2018-03-14T11:05:58.926Z,8.04
2018-03-14T11:08:27.296Z,8.09
2018-03-14T11:10:55.699Z,8.10
2018-03-14T11:13:24.143Z,8.63
2018-03-14T11:15:52.485Z,8.51
2018-03-14T11:18:20.843Z,8.46
2018-03-14T11:20:49.163Z,8.60
2018-03-14T11:23:17.512Z,9.50
2018-03-14T11:25:45.976Z,9.49
2018-03-14T11:28:14.315Z,9.76
2018-03-14T11:30:42.635Z,9.03
2018-03-14T11:33:10.974Z,8.20
2018-03-14T11:35:39.338Z,8.35
2018-03-14T11:38:07.769Z,8.04
2018-03-14T11:40:36.198Z,8.56
2018-03-14T11:43:05.509Z,9.21
2018-03-14T11:45:33.889Z,9.81
2018-03-14T11:48:02.212Z,11.40
2018-03-14T11:50:30.579Z,10.23
2018-03-14T11:52:58.892Z,9.42
2018-03-14T11:55:27.296Z,10.19
2018-03-14T11:57:55.624Z,10.23
2018-03-14T12:00:24.044Z,10.96
2018-03-14T12:02:53.250Z,10.19
2018-03-14T12:05:21.632Z,9.72
2018-03-14T12:07:49.959Z,10.13
2018-03-14T12:10:18.403Z,11.03
2018-03-14T12:12:46.724Z,11.97
2018-03-14T12:15:15.074Z,14.42
2018-03-14T12:17:43.419Z,13.77
2018-03-14T12:20:11.763Z,14.26
2018-03-14T12:22:40.167Z,15.29
2018-03-14T12:25:08.555Z,14.10
2018-03-14T12:27:36.923Z,13.33
2018-03-14T12:30:05.279Z,13.20
2018-03-14T12:32:33.602Z,13.64
2018-03-14T12:35:02.861Z,13.55
2018-03-14T12:37:31.218Z,13.36
2018-03-14T12:39:59.590Z,16.10
2018-03-14T12:42:27.951Z,16.06
2018-03-14T12:44:56.277Z,16.57
2018-03-14T12:47:24.617Z,18.11
2018-03-14T12:49:52.944Z,14.57
2018-03-14T12:52:21.323Z,13.10
2018-03-14T12:54:49.657Z,11.65
2018-03-14T12:57:18.007Z,11.08
2018-03-14T12:59:46.335Z,11.01
2018-03-14T13:02:14.675Z,11.36
2018-03-14T13:04:43.009Z,15.17
2018-03-14T13:07:11.393Z,15.90
2018-03-14T13:09:39.714Z,14.10
2018-03-14T13:12:08.120Z,16.96
2018-03-14T13:14:36.446Z,17.68
2018-03-14T13:17:04.817Z,18.82
2018-03-14T13:19:33.154Z,17.46
2018-03-14T13:22:01.554Z,14.51
2018-03-14T13:24:29.888Z,12.78
2018-03-14T13:26:58.240Z,12.13
2018-03-14T13:29:26.565Z,11.16
2018-03-14T13:31:55.896Z,10.88
2018-03-14T13:34:24.222Z,10.18
2018-03-14T13:36:52.551Z,10.59
2018-03-14T13:39:20.967Z,11.00
2018-03-14T13:41:49.283Z,10.83
2018-03-14T13:44:17.722Z,12.09
2018-03-14T13:46:46.067Z,12.32
2018-03-14T13:49:14.479Z,15.74
2018-03-14T13:51:42.815Z,18.13
2018-03-14T13:54:11.170Z,19.14
2018-03-14T13:56:39.502Z,16.24
2018-03-14T13:59:07.871Z,15.28
2018-03-14T14:01:36.230Z,13.97
2018-03-14T14:04:04.605Z,14.07
2018-03-14T14:06:32.926Z,13.10
2018-03-14T14:09:01.490Z,13.92
2018-03-14T14:11:29.852Z,16.97
2018-03-14T14:13:58.184Z,14.84
2018-03-14T14:16:26.521Z,18.11
2018-03-14T14:18:54.866Z,19.26
2018-03-14T14:21:23.199Z,17.25
2018-03-14T14:23:51.563Z,19.80
2018-03-14T14:26:19.907Z,15.97
2018-03-14T14:28:48.283Z,17.14
2018-03-14T14:31:16.665Z,15.62
2018-03-14T14:33:45.078Z,16.13
2018-03-14T14:36:13.413Z,20.10
2018-03-14T14:38:41.738Z,18.17
2018-03-14T14:41:10.091Z,16.51
2018-03-14T14:43:38.417Z,18.94
2018-03-14T14:46:06.842Z,19.37
2018-03-14T14:48:35.210Z,18.02
2018-03-14T14:51:03.576Z,19.76
2018-03-14T14:53:32.034Z,20.45
2018-03-14T14:56:00.439Z,19.70
2018-03-14T14:58:28.844Z,20.76
2018-03-14T15:00:57.195Z,21.10
2018-03-14T15:03:25.515Z,20.40
2018-03-14T15:05:53.868Z,18.67
2018-03-14T15:08:22.176Z,20.77
2018-03-14T15:10:50.521Z,20.59
2018-03-14T15:13:18.835Z,19.93
2018-03-14T15:15:47.205Z,16.60
2018-03-14T15:18:15.525Z,15.16
2018-03-14T15:20:43.959Z,17.76
2018-03-14T15:23:12.310Z,19.76
2018-03-14T15:25:40.662Z,20.62
2018-03-14T15:28:08.988Z,20.56
2018-03-14T15:30:37.348Z,18.41
2018-03-14T15:33:05.676Z,18.41
2018-03-14T15:35:34.090Z,18.13
2018-03-14T15:38:02.439Z,18.74
2018-03-14T15:40:30.762Z,18.91
2018-03-14T15:42:59.131Z,19.37
2018-03-14T15:45:27.515Z,20.08
2018-03-14T15:47:56.210Z,19.65
2018-03-14T15:50:24.511Z,19.65
2018-03-14T15:52:52.985Z,19.57
2018-03-14T15:55:21.319Z,19.67
2018-03-14T15:57:49.665Z,18.97
2018-03-14T16:00:18.727Z,18.59
2018-03-14T16:02:47.173Z,18.63
2018-03-14T16:05:15.515Z,17.66
2018-03-14T16:07:43.906Z,17.23
2018-03-14T16:10:12.318Z,16.90
2018-03-14T16:12:40.668Z,17.07
2018-03-14T16:15:09.070Z,16.59
2018-03-14T16:17:37.460Z,16.66
2018-03-14T16:20:10.855Z,15.80
2018-03-14T16:22:39.513Z,15.92
2018-03-14T16:25:07.910Z,15.66
2018-03-14T16:27:36.254Z,15.29
2018-03-14T16:30:04.574Z,15.05
2018-03-14T16:32:32.926Z,15.35
2018-03-14T16:35:01.260Z,14.77
2018-03-14T16:37:29.632Z,13.80
2018-03-14T16:39:58.880Z,12.17
2018-03-14T16:42:27.314Z,11.01
2018-03-14T16:44:56.581Z,10.47
2018-03-14T16:47:24.993Z,10.27
2018-03-14T16:49:53.439Z,9.96
2018-03-14T16:52:21.953Z,9.73
2018-03-14T16:54:50.284Z,9.66
2018-03-14T16:57:18.668Z,9.64
2018-03-14T16:59:47.027Z,9.72
2018-03-14T17:02:15.419Z,9.47
2018-03-14T17:04:43.814Z,9.30
2018-03-14T17:07:12.150Z,9.04
2018-03-14T17:09:40.599Z,8.82
2018-03-14T17:12:08.940Z,8.78
2018-03-14T17:14:37.321Z,8.38
2018-03-14T17:17:05.690Z,8.38
2018-03-14T17:19:34.046Z,8.46
2018-03-14T17:22:02.370Z,8.40
2018-03-14T17:24:30.768Z,8.29
2018-03-14T17:26:59.083Z,8.25
2018-03-14T17:29:28.355Z,7.91
2018-03-14T17:31:56.715Z,7.62
2018-03-14T17:34:25.187Z,7.72
2018-03-14T17:36:53.506Z,7.82
2018-03-14T17:39:21.855Z,7.75
2018-03-14T17:41:50.207Z,7.65
2018-03-14T17:44:18.547Z,7.53
2018-03-14T17:46:47.000Z,7.66
2018-03-14T17:49:15.342Z,7.56
2018-03-14T17:51:43.688Z,7.35
2018-03-14T17:54:12.021Z,7.39
2018-03-14T17:56:40.356Z,7.52
2018-03-14T17:59:08.776Z,7.42
2018-03-14T18:01:37.158Z,7.75
2018-03-14T18:04:05.458Z,7.45
2018-03-14T18:06:33.877Z,7.30
2018-03-14T18:09:02.209Z,7.37
2018-03-14T18:11:30.539Z,7.18
2018-03-14T18:13:58.859Z,7.13
2018-03-14T18:16:27.212Z,7.00
2018-03-14T18:18:55.567Z,7.00
2018-03-14T18:21:23.985Z,7.02
2018-03-14T18:23:52.270Z,6.72
2018-03-14T18:26:20.694Z,6.89
2018-03-14T18:28:49.094Z,6.76
2018-03-14T18:31:17.556Z,6.75
2018-03-14T18:33:45.877Z,6.63
2018-03-14T18:36:14.247Z,6.52
2018-03-14T18:38:42.627Z,6.26
2018-03-14T18:41:10.976Z,6.24
2018-03-14T18:43:39.319Z,6.37
2018-03-14T18:46:07.643Z,6.54
2018-03-14T18:48:35.994Z,6.66
2018-03-14T18:51:04.307Z,6.57
2018-03-14T18:53:32.695Z,6.32
2018-03-14T18:56:01.005Z,6.43
2018-03-14T18:58:29.363Z,6.43
2018-03-14T19:00:57.677Z,6.29
2018-03-14T19:03:26.066Z,6.37
2018-03-14T19:05:54.384Z,6.36
2018-03-14T19:08:22.795Z,6.15
2018-03-14T19:10:51.203Z,6.13
2018-03-14T19:13:19.543Z,6.02
2018-03-14T19:15:47.996Z,6.06
2018-03-14T19:18:16.331Z,5.76
2018-03-14T19:20:44.656Z,5.91
2018-03-14T19:23:13.095Z,5.71
2018-03-14T19:25:41.422Z,5.63
2018-03-14T19:28:09.847Z,5.54
2018-03-14T19:30:38.225Z,5.65
2018-03-14T19:33:06.583Z,5.69
2018-03-14T19:35:34.989Z,5.51
2018-03-14T19:38:03.359Z,5.58
2018-03-14T19:40:31.758Z,5.74
2018-03-14T19:43:00.070Z,5.60
2018-03-14T19:45:28.496Z,5.61
2018-03-14T19:47:56.826Z,5.59
2018-03-14T19:50:25.252Z,5.54
2018-03-14T19:52:53.637Z,5.67
2018-03-14T19:55:22.030Z,5.49
2018-03-14T19:57:50.355Z,5.59
2018-03-14T20:00:18.731Z,5.36
2018-03-14T20:02:47.036Z,5.22
2018-03-14T20:05:15.427Z,5.28
2018-03-14T20:07:43.751Z,5.16
2018-03-14T20:10:12.101Z,5.15
2018-03-14T20:12:40.439Z,5.15
2018-03-14T20:15:08.793Z,4.80
2018-03-14T20:17:37.094Z,5.15
2018-03-14T20:20:05.469Z,4.77
2018-03-14T20:22:33.801Z,4.71
2018-03-14T20:25:02.199Z,4.67
2018-03-14T20:27:30.530Z,4.70
2018-03-14T20:29:58.921Z,4.60
2018-03-14T20:32:27.600Z,4.57
2018-03-14T20:34:56.004Z,4.84
2018-03-14T20:37:24.378Z,4.69
2018-03-14T20:39:52.707Z,4.66
2018-03-14T20:42:21.043Z,4.48
2018-03-14T20:44:49.459Z,4.38
2018-03-14T20:47:17.798Z,4.35
2018-03-14T20:49:46.155Z,4.23
2018-03-14T20:52:14.500Z,4.24
2018-03-14T20:54:42.846Z,4.24
2018-03-14T20:57:11.198Z,4.30
2018-03-14T20:59:39.529Z,4.37
2018-03-14T21:02:07.930Z,4.22
2018-03-14T21:04:36.250Z,4.07
2018-03-14T21:07:04.609Z,4.13
2018-03-14T21:09:32.980Z,4.04
2018-03-14T21:12:01.313Z,3.99
2018-03-14T21:14:29.647Z,3.99
2018-03-14T21:16:58.099Z,4.06
2018-03-14T21:19:26.459Z,4.09
2018-03-14T21:21:54.825Z,4.17
2018-03-14T21:24:23.132Z,3.94
2018-03-14T21:26:51.486Z,3.85
2018-03-14T21:29:19.807Z,3.84
2018-03-14T21:31:48.251Z,3.91
2018-03-14T21:34:16.593Z,4.03
2018-03-14T21:36:44.946Z,3.85
2018-03-14T21:39:13.287Z,3.74
2018-03-14T21:41:41.662Z,3.69
2018-03-14T21:44:10.036Z,3.72
2018-03-14T21:46:38.380Z,3.64
2018-03-14T21:49:06.762Z,3.66
2018-03-14T21:51:35.184Z,3.67
2018-03-14T21:54:03.559Z,3.60
2018-03-14T21:56:31.894Z,3.57
2018-03-14T21:59:00.235Z,3.54
2018-03-14T22:01:28.580Z,3.49
2018-03-14T22:03:56.938Z,3.44
2018-03-14T22:06:25.343Z,3.44
2018-03-14T22:08:53.718Z,3.38
2018-03-14T22:11:22.098Z,3.32
2018-03-14T22:13:50.446Z,3.40
2018-03-14T22:16:18.774Z,3.34
2018-03-14T22:18:47.120Z,3.39
2018-03-14T22:21:15.453Z,3.31
2018-03-14T22:23:43.812Z,3.36
2018-03-14T22:26:12.118Z,3.25
2018-03-14T22:28:40.560Z,3.16
2018-03-14T22:31:08.889Z,3.22
2018-03-14T22:33:37.413Z,3.11
2018-03-14T22:36:05.791Z,3.00
2018-03-14T22:38:34.123Z,3.06
2018-03-14T22:41:03.059Z,3.17
2018-03-14T22:43:31.490Z,3.03
2018-03-14T22:45:59.827Z,3.11
2018-03-14T22:48:28.150Z,3.08
2018-03-14T22:50:56.490Z,2.91
2018-03-14T22:53:24.821Z,2.92
2018-03-14T22:55:53.174Z,2.87
2018-03-14T22:58:21.488Z,2.83
2018-03-14T23:00:49.826Z,2.88
2018-03-14T23:03:18.178Z,2.82
2018-03-14T23:05:46.517Z,2.91
2018-03-14T23:08:14.906Z,2.78
2018-03-14T23:10:43.276Z,2.83
2018-03-14T23:13:11.609Z,2.91
2018-03-14T23:15:40.043Z,2.83
2018-03-14T23:18:08.378Z,2.88
2018-03-14T23:20:36.729Z,2.87
2018-03-14T23:23:05.058Z,2.79
2018-03-14T23:25:33.402Z,2.71
2018-03-14T23:28:01.718Z,2.69
2018-03-14T23:30:30.199Z,2.77
2018-03-14T23:32:58.590Z,2.77
2018-03-14T23:35:26.966Z,2.60
2018-03-14T23:37:55.284Z,2.63
2018-03-14T23:40:23.616Z,2.59
2018-03-14T23:42:51.998Z,2.54
2018-03-14T23:45:20.319Z,2.46
2018-03-14T23:47:48.751Z,2.45
2018-03-14T23:50:17.147Z,2.56
2018-03-14T23:52:45.516Z,2.76
2018-03-14T23:55:13.883Z,2.54
2018-03-14T23:57:42.269Z,2.36
